Weather History for Buckhannon, WV

Change the Weather History Date:

Wednesday, November 20, 2013

  Actual Average (KEKN) Record (KEKN)
Temperature  
Mean Temperature 42 °F 40 °F  
Max Temperature 53 °F 51 °F 76 °F (1991)
Min Temperature 30 °F 30 °F 7 °F (1951)
Degree Days  
Heating Degree Days 24 25  
Month to date heating degree days 430  
Since 1 July heating degree days 1021  
Cooling Degree Days 0 0  
Month to date cooling degree days 0  
Year to date cooling degree days 475  
Moisture  
Dew Point 14 °F    
Average Humidity 42    
Maximum Humidity 75    
Minimum Humidity 14    
Precipitation  
Precipitation 0.00 in 0.12 in 0.91 in (1988)
Month to date precipitation 2.22  
Year to date precipitation 41.51  
Snow  
Snow 0.00 in - - ()
Month to date snowfall  
Since 1 September snowfall  
Snow Depth -    
Sea Level Pressure  
Sea Level Pressure 30.34 in    
Wind  
Wind Speed 2 mph (SE)    
Max Wind Speed 14 mph    
Max Gust Speed -    
Visibility 10 miles    
Events      
T = Trace of Precipitation, MM = Missing Value Source: NWS Daily Summary

Daily Weather History Graph

Daily Weather History Graph

Search for Another Location

Airport:

Trip Planner

Search our weather history database for the weather conditions in past years. The results will help you decide how hot, cold, wet, or windy it might be!

Date:

Astronomy

Nov. 20, 2013 Rise Set
Actual Time 7:09 AM EST 5:03 PM EST
Civil Twilight 6:40 AM EST 5:32 PM EST
Nautical Twilight 6:08 AM EST 6:04 PM EST
Astronomical Twilight 5:36 AM EST 6:36 PM EST
Moon 7:45 PM EST (11/20) 9:33 AM EST (11/20)
Length of Visible Light 10h 51m
Length of Day
9h 53m
Waning Gibbous, 91% of the Moon is Illuminated
Nov 20
Waning Gibbous
Nov 25
Last Quarter
Dec 2
New
Dec 9
First Quarter
Dec 17
Full

Hourly Weather History & Observations

Time (EST) Temp. Windchill Dew Point Humidity Pressure Visibility Wind Dir Wind Speed Gust Speed Precip Events Conditions
12:15 AM 30.2 °F - 23.0 °F 75% 30.35 in 10.0 mi Calm Calm - N/A   Clear
12:35 AM 30.2 °F - 23.0 °F 75% 30.34 in 10.0 mi Calm Calm - N/A   Clear
12:55 AM 32.0 °F - 23.0 °F 69% 30.34 in 10.0 mi Calm Calm - N/A   Clear
1:15 AM 30.2 °F - 23.0 °F 75% 30.34 in 10.0 mi Calm Calm - N/A   Clear
1:35 AM 30.2 °F - 23.0 °F 75% 30.34 in 10.0 mi Calm Calm - N/A   Clear
1:55 AM 30.2 °F - 23.0 °F 75% 30.33 in 10.0 mi Calm Calm - N/A   Clear
2:15 AM 30.2 °F - 23.0 °F 75% 30.33 in 10.0 mi Calm Calm - N/A   Clear
2:35 AM 30.2 °F - 23.0 °F 75% 30.33 in 10.0 mi Calm Calm - N/A   Clear
2:55 AM 30.2 °F - 21.2 °F 69% 30.33 in 10.0 mi Calm Calm - N/A   Clear
3:15 AM 30.2 °F - 21.2 °F 69% 30.33 in 10.0 mi Calm Calm - N/A   Clear
3:35 AM 30.2 °F - 21.2 °F 69% 30.33 in 10.0 mi Calm Calm - N/A   Clear
3:55 AM 30.2 °F - 21.2 °F 69% 30.33 in 10.0 mi Calm Calm - N/A   Clear
4:15 AM 30.2 °F - 21.2 °F 69% 30.32 in 10.0 mi Calm Calm - N/A   Clear
4:35 AM 30.2 °F - 21.2 °F 69% 30.32 in 10.0 mi Calm Calm - N/A   Clear
4:55 AM 30.2 °F - 21.2 °F 69% 30.33 in 10.0 mi Calm Calm - N/A   Clear
5:15 AM 30.2 °F - 21.2 °F 69% 30.33 in 10.0 mi Calm Calm - N/A   Clear
5:35 AM 30.2 °F - 21.2 °F 69% 30.33 in 10.0 mi Calm Calm - N/A   Clear
5:55 AM 30.2 °F - 21.2 °F 69% 30.34 in 10.0 mi Calm Calm - N/A   Clear
6:15 AM 30.2 °F - 19.4 °F 64% 30.34 in 10.0 mi Calm Calm - N/A   Clear
6:35 AM 30.2 °F - 19.4 °F 64% 30.34 in 10.0 mi Calm Calm - N/A   Clear
6:55 AM 30.2 °F - 19.4 °F 64% 30.35 in 10.0 mi Calm Calm - N/A   Clear
7:15 AM 30.2 °F - 19.4 °F 64% 30.35 in 10.0 mi Calm Calm - N/A   Clear
7:35 AM 30.2 °F - 19.4 °F 64% 30.36 in 10.0 mi Calm Calm - N/A   Clear
7:55 AM 30.2 °F - 17.6 °F 60% 30.37 in 10.0 mi Calm Calm - N/A   Clear
8:15 AM 30.2 °F - 17.6 °F 60% 30.37 in 10.0 mi Calm Calm - N/A   Clear
8:35 AM 32.0 °F - 17.6 °F 55% 30.37 in 10.0 mi Calm Calm - N/A   Clear
8:55 AM 33.8 °F - 17.6 °F 52% 30.38 in 10.0 mi Calm Calm - N/A   Clear
9:15 AM 35.6 °F - 17.6 °F 48% 30.38 in 10.0 mi Calm Calm - N/A   Clear
9:35 AM 37.4 °F - 15.8 °F 41% 30.38 in 10.0 mi Calm Calm - N/A   Clear
9:55 AM 41.0 °F - 14.0 °F 33% 30.38 in 10.0 mi Calm Calm - N/A   Clear
10:15 AM 42.8 °F - 12.2 °F 29% 30.38 in 10.0 mi Calm Calm - N/A   Clear
10:35 AM 44.6 °F 42.2 °F 8.6 °F 23% 30.38 in 10.0 mi ESE 4.6 mph - N/A   Clear
10:55 AM 46.4 °F - 8.6 °F 22% 30.37 in 10.0 mi Calm Calm - N/A   Clear
11:15 AM 46.4 °F 41.9 °F 5.0 °F 18% 30.36 in 10.0 mi ESE 9.2 mph - N/A   Clear
11:35 AM 48.2 °F - 5.0 °F 17% 30.35 in 10.0 mi ESE 4.6 mph - N/A   Clear
11:55 AM 48.2 °F - 5.0 °F 17% 30.34 in 10.0 mi ESE 3.5 mph - N/A   Clear
12:15 PM 50.0 °F - 6.8 °F 17% 30.34 in 10.0 mi SE 6.9 mph - N/A   Clear
12:35 PM 50.0 °F - 5.0 °F 16% 30.33 in 10.0 mi ESE 4.6 mph - N/A   Clear
12:55 PM 51.8 °F - 5.0 °F 15% 30.33 in 10.0 mi Calm Calm - N/A   Clear
1:15 PM 53.6 °F - 8.6 °F 16% 30.32 in 10.0 mi Calm Calm - N/A   Clear
1:35 PM 53.6 °F - 8.6 °F 16% 30.31 in 10.0 mi South 3.5 mph - N/A   Clear
1:55 PM 53.6 °F - 5.0 °F 14% 30.31 in 10.0 mi Calm Calm - N/A   Clear
2:15 PM 53.6 °F - 8.6 °F 16% 30.30 in 10.0 mi South 10.4 mph - N/A   Clear
2:35 PM 53.6 °F - 6.8 °F 15% 30.30 in 10.0 mi South 12.7 mph - N/A   Clear
2:55 PM 53.6 °F - 6.8 °F 15% 30.29 in 10.0 mi South 10.4 mph - N/A   Clear
3:15 PM 53.6 °F - 8.6 °F 16% 30.30 in 10.0 mi South 13.8 mph - N/A   Clear
3:35 PM 53.6 °F - 10.4 °F 18% 30.30 in 10.0 mi South 11.5 mph - N/A   Clear
3:55 PM 51.8 °F - 10.4 °F 19% 30.30 in 10.0 mi South 9.2 mph - N/A   Clear
4:15 PM 51.8 °F - 8.6 °F 18% 30.30 in 10.0 mi SSE 10.4 mph - N/A   Clear
4:35 PM 51.8 °F - 10.4 °F 19% 30.31 in 10.0 mi SSE 8.1 mph - N/A   Clear
4:55 PM 50.0 °F - 10.4 °F 20% 30.31 in 10.0 mi SSE 9.2 mph - N/A   Clear
5:15 PM 48.2 °F - 10.4 °F 22% 30.31 in 10.0 mi SSE 10.4 mph - N/A   Clear
5:35 PM 46.4 °F 42.4 °F 10.4 °F 23% 30.32 in 10.0 mi SSE 8.1 mph - N/A   Clear
5:55 PM 46.4 °F 41.1 °F 10.4 °F 23% 30.32 in 10.0 mi SE 11.5 mph - N/A   Clear
6:15 PM 46.4 °F 41.5 °F 10.4 °F 23% 30.32 in 10.0 mi SSE 10.4 mph - N/A   Clear
6:35 PM 44.6 °F 40.2 °F 10.4 °F 25% 30.33 in 10.0 mi SSE 8.1 mph - N/A   Clear
6:55 PM 44.6 °F 40.7 °F 10.4 °F 25% 30.33 in 10.0 mi SE 6.9 mph - N/A   Clear
7:15 PM 44.6 °F 40.7 °F 10.4 °F 25% 30.33 in 10.0 mi SE 6.9 mph - N/A   Clear
7:35 PM 42.8 °F 41.1 °F 10.4 °F 27% 30.34 in 10.0 mi SE 3.5 mph - N/A   Clear
7:55 PM 41.0 °F - 10.4 °F 29% 30.34 in 10.0 mi Calm Calm - N/A   Clear
8:15 PM 41.0 °F - 10.4 °F 29% 30.34 in 10.0 mi Calm Calm - N/A   Clear
8:35 PM 41.0 °F - 10.4 °F 29% 30.34 in 10.0 mi Calm Calm - N/A   Clear
8:55 PM 39.2 °F - 10.4 °F 31% 30.35 in 10.0 mi Calm Calm - N/A   Clear
9:15 PM 39.2 °F - 12.2 °F 33% 30.34 in 10.0 mi Calm Calm - N/A   Clear
9:35 PM 39.2 °F - 12.2 °F 33% 30.34 in 10.0 mi Calm Calm - N/A   Clear
9:55 PM 39.2 °F - 12.2 °F 33% 30.35 in 10.0 mi Calm Calm - N/A   Clear
10:15 PM 37.4 °F - 14.0 °F 38% 30.36 in 10.0 mi Calm Calm - N/A   Clear
10:35 PM 37.4 °F - 14.0 °F 38% 30.36 in 10.0 mi Calm Calm - N/A   Clear
10:55 PM 35.6 °F - 15.8 °F 44% 30.36 in 10.0 mi Calm Calm - N/A   Clear
11:15 PM 35.6 °F - 15.8 °F 44% 30.36 in 10.0 mi Calm Calm - N/A   Clear
11:35 PM 35.6 °F 30.7 °F 15.8 °F 44% 30.36 in 10.0 mi East 5.8 mph - N/A   Clear
11:55 PM 35.6 °F 29.9 °F 17.6 °F 48% 30.35 in 10.0 mi East 6.9 mph - N/A   Clear